KPMU/PMU METAR and TAF weather

Enter ICAO airport designator
Station Type Date Time Source
KPMU METAR 2018/12/10 01:55 UTC NOAA

KPMU 100155Z AUTO 35005KT 10SM OVC049 02/M00 A3023 RMK AO2


Station Type Date Time Source
KPMU Decoded METAR 2018/12/10 01:55 UTC NOAA

Station name not available
Dec 09, 2018 - 08:55 PM EST / 2018.12.10 0155 UTC
Wind: from the N (350 degrees) at 6 MPH (5 KT):0
Visibility: 10 mile(s):0
Sky conditions: overcast
Temperature: 35 F (2 C)
Windchill: 30 F (-1 C):1
Dew Point: 32 F (0 C)
Relative Humidity: 86%
Pressure (altimeter): 30.23 in. Hg (1023 hPa)
ob: KPMU 100155Z AUTO 35005KT 10SM OVC049 02/M00 A3023 RMK AO2
cycle: 2

Station Type Date Time Source
KPMU TAF UTC NOAA

Error!


Example: see airport list